x

Western Hawaii - 205 Nm Sw Of Honolulu, Hi (51003) Wave Buoy

6:50am - Fri 29th May 2015 All times are HST. -10 hours from GMT.

  • Sig Wave height 3.9ft
  • Peak Period 10s
  • Average Period 7s
  • Wind
    2mph, 4mph gusts
  • Sea Temp 79°f
  • Air Temp 77°f
  • Sea Pressure 1014.9mb
  • Western  Hawaii - 205 Nm Sw Of Honolulu, Hi
  • Western  Hawaii - 205 Nm Sw Of Honolulu, Hi

More Historic Weather Station data

Upgrade to MSW Pro to gain access to the past 30 days of data for over 8000 Wavebouys and Weather Stations around the globe.

Join Pro

Comparision Forecast

View Surf forecast
   
Fri 05/29 6:50am 4ft 10s 7s 2 4 mph 1014.9mb 79f 77f
5:50am 4.5ft 15s 7s 4 7 mph 1014.4mb 79f 77f
4:50am 4.5ft 15s 7s 7 9 mph 1014.1mb 79f 77f
3:50am 4.5ft 10s 7s 4 7 mph 1014.2mb 79f 77f
2:50am 4.5ft 11s 7s 4 7 mph 1014.5mb 79f 77f
1:50am 4.5ft 16s  -  4 7 mph 1014.8mb 79f 77f
12:50am 4.5ft 14s 7s 7
mph
1015.6mb 79f 78f
Thu 05/28 11:50pm 4.5ft 16s 7s 7 9 mph 1016.2mb 79f 78f
10:50pm 4.5ft 13s 7s 7 9 mph 1016.4mb 79f 78f
9:50pm 4.5ft 13s 7s 7 9 mph 1016mb 79f 78f
8:50pm 4.5ft 14s 7s 7
mph
1015.5mb 79f 78f
7:50pm 5ft 11s 7s 7 9 mph 1015.2mb 80f 78f
6:50pm 5ft 12s 7s 7 9 mph 1014.7mb 80f 78f
5:50pm 5ft 11s 7s 9 11 mph 1014.1mb 80f 78f
4:50pm 4.5ft 12s 7s 9
mph
1013.9mb 80f 78f
3:50pm 4.5ft 11s 6s 9 11 mph 1013.8mb 80f 78f
2:50pm 4.5ft 12s 7s 9 11 mph 1014mb 80f 77f
1:50pm 5ft 11s 7s 9 11 mph 1014.3mb 80f 77f
12:50pm 4.5ft 11s 6s 9 11 mph 1014.7mb 80f 77f
11:50am 5ft 12s 7s 9 11 mph 1014.9mb 80f 77f
10:50am 4.5ft 12s 7s 11 13 mph 1015.1mb 79f 77f
9:50am 4.5ft 11s 6s 11 13 mph 1015.3mb 79f 77f
8:50am 4.5ft 12s 7s 13 16 mph 1015.1mb 79f 77f
7:50am 5ft 11s 7s 9 11 mph 1015mb 79f 77f
6:50am 5ft 11s 8s 9 11 mph 1014.7mb 79f 77f
5:50am 4.5ft 13s 7s 9 11 mph 1014.2mb 79f 77f
4:50am 4.5ft 12s 8s 7
mph
1013.6mb 79f 77f
3:50am 4.5ft 13s 7s 7 9 mph 1013.4mb 79f 77f
2:50am 4.5ft 12s 7s 4 7 mph 1013.5mb 79f 77f
1:50am 4.5ft 13s 7s 4 11 mph 1014.1mb 79f 75f
12:50am 4.5ft 13s 7s 7 9 mph 1014.8mb 79f 76f
Wed 05/27 11:50pm 4.5ft 14s 6s 9 11 mph 1015.1mb 79f 76f
10:50pm 4.5ft 13s 6s 9 13 mph 1015.4mb 79f 75f
9:50pm 4.5ft 12s 7s 11 13 mph 1015.3mb 79f 74f
8:50pm 4.5ft 13s 7s 9 11 mph 1014.9mb 79f 74f
7:50pm 4.5ft 13s 6s 11 13 mph 1014.5mb 79f 73f
6:50pm 4.5ft 13s 6s 16 18 mph 1013.6mb 79f 73f
5:50pm 5ft 11s  -  16 18 mph 1012.7mb 79f 74f
4:50pm 4.5ft 14s 7s 9 11 mph 1012.7mb 80f 76f
3:50pm 4.5ft 12s 7s 2 4 mph 1013mb 79f 75f
2:50pm 4.5ft 13s 7s 4
mph
1013.6mb 79f 74f
1:50pm 4.5ft 11s 7s 9 11 mph 1014.1mb 79f 72f
12:50pm 4.5ft 12s 6s  -  2 mph 1014.6mb 79f 71f
11:50am 4.5ft 13s 6s 2 4 mph 1014.8mb 79f 71f
10:50am 4.5ft 13s 6s 9 11 mph 1014.4mb 79f 76f
9:50am 5ft 13s 6s 7 11 mph 1014.3mb 79f 75f
8:50am 5ft 13s 7s 9 11 mph 1013.9mb 79f 75f
7:50am 4.5ft 13s 7s 11 13 mph 1013.5mb 79f 75f
6:50am 5ft 11s 7s 9 13 mph 1013.3mb 79f 75f
5:50am 5ft 13s 7s 7 9 mph 1012.9mb 79f 75f
4:50am 4.5ft 13s 7s 4 7 mph 1012.8mb 79f 76f
3:50am 5ft 14s 7s 4 7 mph 1012.9mb 79f 76f
2:50am 5ft 11s 7s 4 9 mph 1013.2mb 79f 76f
1:50am 5ft 13s 7s 7
mph
1013.8mb 79f 76f
12:50am 5ft 14s 7s 7 11 mph 1014.4mb 79f 76f
Tue 05/26 11:50pm 5ft 15s 6s 7 9 mph 1015mb 79f 76f
10:50pm 5ft 12s 6s 9 11 mph 1015.3mb 79f 76f
9:50pm 5ft 11s 6s 11 13 mph 1015mb 79f 76f
8:50pm 5ft 14s 6s 9 13 mph 1014.8mb 79f 76f
7:50pm 5ft 15s 6s 11 16 mph 1014.3mb 79f 76f
6:50pm 5ft 12s 6s 13 20 mph 1013.6mb 79f 77f
5:50pm 5ft 12s 6s 13 18 mph 1013.3mb 79f 77f
4:50pm 5.5ft 14s 7s 11 16 mph 1013mb 79f 76f
3:50pm 5.5ft 13s 7s 4 9 mph 1013.1mb 80f 76f
2:50pm 5ft 15s 7s 4 7 mph 1013.6mb 80f 74f
1:50pm 5ft 13s 7s 11 13 mph 1014.1mb 79f 74f
12:50pm 5ft 13s 6s 11 16 mph 1014.7mb 79f 72f
11:50am 5ft 14s 6s 13 16 mph 1014.8mb 79f 73f
10:50am 5.5ft 15s 7s 20 25 mph 1014.6mb 79f 74f
9:50am 6ft 13s 7s 7 11 mph 1014.8mb 79f 76f
8:50am 6ft 14s 7s 7 9 mph 1014.7mb 79f 76f
7:50am 5.5ft 15s 6s 7 9 mph 1014.3mb 79f 76f
6:50am 6ft 14s 7s 9 11 mph 1013.8mb 79f 76f
5:50am 6ft 13s 7s 9 11 mph 1013.4mb 79f 76f
4:50am 6ft 15s 7s 9 13 mph 1013.4mb 79f 76f
3:50am 6ft 13s 7s 11 13 mph 1013.4mb 79f 75f
2:50am 6ft 15s 7s 7
mph
1013.6mb 79f 75f
1:50am 5.5ft 15s 7s 7 9 mph 1014mb 79f 75f
12:50am 6ft 13s 7s 4 7 mph 1014.7mb 79f 74f
Mon 05/25 11:50pm 5.5ft 10s 7s 7 9 mph 1015.1mb 79f 74f
10:50pm 6ft 14s 6s 9 16 mph 1015.9mb 79f 70f
9:50pm 6ft 14s 7s 9 11 mph 1015.5mb 79f 74f
8:50pm 6.5ft 10s 7s 9 11 mph 1015.3mb 79f 73f
7:50pm 7ft 14s 7s 13 16 mph 1014.9mb 79f 72f
6:50pm 6ft 14s 6s 16 20 mph 1014.3mb 79f 73f